createdAt,value
2018-12-27T05:12:25.941Z,87.45
2018-12-27T05:22:54.165Z,86.99
2018-12-27T05:25:44.945Z,87.22
2018-12-27T05:29:01.966Z,88.52
2018-12-27T05:31:54.564Z,88.73
2018-12-27T05:35:06.609Z,88.03
2018-12-27T05:41:09.965Z,87.50
2018-12-27T05:43:47.785Z,87.83
2018-12-27T05:46:26.571Z,87.92
2018-12-27T05:52:14.963Z,87.19
2018-12-27T05:55:06.842Z,86.82
2018-12-27T06:01:22.057Z,84.62
2018-12-27T06:04:33.692Z,84.40
2018-12-27T06:07:40.743Z,83.48
2018-12-27T06:10:30.262Z,83.85
2018-12-27T06:17:01.545Z,85.22
2018-12-27T06:20:10.090Z,85.43
2018-12-27T06:22:59.603Z,85.09
2018-12-27T06:26:12.381Z,84.33
2018-12-27T06:32:17.543Z,83.62
2018-12-27T06:35:24.027Z,82.76
2018-12-27T06:38:14.769Z,82.48
2018-12-27T06:41:59.514Z,82.84
2018-12-27T06:44:51.182Z,83.20
2018-12-27T06:47:57.816Z,83.13
2018-12-27T07:14:21.984Z,87.05
2018-12-27T07:17:11.755Z,86.51
2018-12-27T07:20:21.671Z,84.89
2018-12-27T07:26:02.015Z,71.69
2018-12-27T07:28:42.629Z,64.37
2018-12-27T07:31:16.498Z,59.94
2018-12-27T07:33:50.700Z,61.77
2018-12-27T07:36:25.582Z,66.02
2018-12-27T07:38:59.587Z,69.34
2018-12-27T07:44:35.066Z,72.54
2018-12-27T07:47:10.312Z,73.76
2018-12-27T07:49:40.597Z,74.26
2018-12-27T07:52:18.762Z,75.09
2018-12-27T07:54:49.812Z,74.96
2018-12-27T07:57:27.163Z,74.92
2018-12-27T07:59:57.435Z,75.16
2018-12-27T08:05:26.890Z,74.91
2018-12-27T08:08:02.808Z,74.21
2018-12-27T08:10:33.111Z,73.20
2018-12-27T08:13:09.112Z,73.50
2018-12-27T16:46:57.303Z,98.63
2018-12-27T16:50:14.114Z,99.46
2018-12-27T16:53:20.595Z,100.00
2018-12-27T16:56:29.659Z,100.00
2018-12-27T16:59:22.701Z,100.00
2018-12-27T17:12:09.086Z,100.00
2018-12-27T17:15:16.324Z,100.00
2018-12-27T17:18:49.300Z,100.00
2018-12-27T17:25:11.212Z,100.00
2018-12-27T17:28:00.699Z,100.00
2018-12-27T17:37:49.392Z,100.00
2018-12-27T17:40:55.599Z,100.00
2018-12-27T17:43:45.516Z,100.00
2018-12-27T17:46:44.030Z,100.00
2018-12-27T17:50:00.683Z,100.00
2018-12-27T17:53:24.350Z,100.00
2018-12-27T17:56:13.858Z,100.00
2018-12-27T17:59:38.765Z,100.00
2018-12-27T18:08:59.162Z,100.00
2018-12-27T18:12:05.125Z,100.00
2018-12-27T18:14:59.102Z,100.00
2018-12-27T18:18:08.055Z,100.00
2018-12-27T18:23:56.887Z,100.00
2018-12-27T18:27:04.579Z,100.00
2018-12-27T18:29:54.635Z,100.00
2018-12-27T18:33:00.780Z,100.00
2018-12-27T18:36:08.943Z,100.00
2018-12-27T18:39:16.362Z,100.00
2018-12-27T18:45:19.587Z,100.00
2018-12-27T18:48:26.067Z,100.00
2018-12-27T18:51:17.235Z,100.00
2018-12-27T18:54:28.978Z,100.00
2018-12-27T18:57:35.285Z,100.00
2018-12-27T19:03:51.815Z,100.00
2018-12-27T19:07:01.378Z,100.00
2018-12-27T19:09:51.836Z,100.00
2018-12-27T19:13:15.490Z,100.00
2018-12-27T19:16:06.567Z,100.00
2018-12-27T19:19:30.226Z,100.00
2018-12-27T19:25:26.138Z,100.00
2018-12-27T19:28:35.163Z,100.00
2018-12-27T19:31:26.213Z,100.00
2018-12-27T19:37:52.144Z,100.00
2018-12-27T21:10:33.221Z,100.00
2018-12-27T21:26:54.688Z,100.00
2018-12-27T21:30:07.642Z,100.00
2018-12-27T21:32:58.866Z,100.00
2018-12-27T21:36:24.309Z,100.00
2018-12-27T21:46:43.283Z,100.00
2018-12-27T21:49:54.466Z,100.00
2018-12-27T21:53:21.993Z,100.00
2018-12-27T21:56:51.123Z,100.00
2018-12-27T21:59:58.169Z,100.00
2018-12-27T22:06:28.825Z,100.00
2018-12-27T22:23:28.367Z,100.00
2018-12-27T22:26:23.461Z,100.00
2018-12-27T22:29:12.861Z,100.00
2018-12-27T22:32:19.649Z,100.00
2018-12-27T22:38:52.610Z,100.00
2018-12-27T22:42:03.521Z,100.00
2018-12-27T22:44:55.162Z,100.00
2018-12-27T22:58:25.657Z,100.00
2018-12-27T23:11:38.284Z,100.00
2018-12-27T23:21:33.237Z,100.00
2018-12-27T23:27:46.407Z,100.00
